createdAt,value
2022-09-12T00:01:37.537Z,18.83
2022-09-12T00:04:07.391Z,18.90
2022-09-12T00:06:38.225Z,18.91
2022-09-12T00:09:10.503Z,19.03
2022-09-12T00:11:43.628Z,18.91
2022-09-12T00:14:16.881Z,19.01
2022-09-12T00:16:46.805Z,18.91
2022-09-12T00:19:17.009Z,18.94
2022-09-12T00:21:47.355Z,19.04
2022-09-12T00:24:17.159Z,19.04
2022-09-12T00:26:48.838Z,19.13
2022-09-12T00:29:20.917Z,19.11
2022-09-12T00:31:50.850Z,19.11
2022-09-12T00:34:20.825Z,18.92
2022-09-12T00:36:50.585Z,18.95
2022-09-12T00:39:20.333Z,18.98
2022-09-12T00:41:51.652Z,18.78
2022-09-12T00:44:45.079Z,18.89
2022-09-12T00:47:20.589Z,18.79
2022-09-12T00:49:56.518Z,18.84
2022-09-12T00:52:32.007Z,19.00
2022-09-12T00:55:06.781Z,19.01
2022-09-12T00:57:44.603Z,19.03
2022-09-12T01:00:16.737Z,18.79
2022-09-12T01:02:50.024Z,18.82
2022-09-12T01:05:20.963Z,18.91
2022-09-12T01:07:52.806Z,18.95
2022-09-12T01:10:23.348Z,18.92
2022-09-12T01:12:55.259Z,19.01
2022-09-12T01:15:25.645Z,19.02
2022-09-12T01:18:08.845Z,19.06
2022-09-12T01:21:07.790Z,18.90
2022-09-12T01:24:19.255Z,18.90
2022-09-12T01:27:29.406Z,18.99
2022-09-12T01:30:33.851Z,19.05
2022-09-12T01:33:23.911Z,18.99
2022-09-12T01:36:07.357Z,19.22
2022-09-12T01:38:40.682Z,19.33
2022-09-12T01:41:18.617Z,19.42
2022-09-12T01:43:52.407Z,19.43
2022-09-12T01:46:27.050Z,19.47
2022-09-12T01:49:02.464Z,19.39
2022-09-12T01:51:37.443Z,19.26
2022-09-12T01:54:11.744Z,19.14
2022-09-12T01:56:45.110Z,19.14
2022-09-12T01:59:20.035Z,19.10
2022-09-12T02:01:56.791Z,19.10
2022-09-12T02:04:34.253Z,19.09
2022-09-12T02:07:12.418Z,19.11
2022-09-12T02:09:47.333Z,19.10
2022-09-12T02:12:21.968Z,19.12
2022-09-12T02:14:56.922Z,18.99
2022-09-12T02:17:28.267Z,19.10
2022-09-12T02:20:03.560Z,19.18
2022-09-12T02:22:37.451Z,19.08
2022-09-12T02:25:10.450Z,19.12
2022-09-12T02:27:44.224Z,18.93
2022-09-12T02:30:16.615Z,19.01
2022-09-12T02:32:58.364Z,18.94
2022-09-12T02:35:37.780Z,18.88
2022-09-12T02:38:11.289Z,18.79
2022-09-12T02:40:41.820Z,18.84
2022-09-12T02:43:11.627Z,18.82
2022-09-12T02:45:42.165Z,18.67
2022-09-12T02:48:17.347Z,18.27
2022-09-12T02:50:49.159Z,18.73
2022-09-12T02:53:19.680Z,18.62
2022-09-12T02:55:49.836Z,18.66
2022-09-12T02:58:24.574Z,18.58
2022-09-12T03:01:08.971Z,18.67
2022-09-12T03:04:00.434Z,18.66
2022-09-12T03:06:38.739Z,18.51
2022-09-12T03:09:16.926Z,18.45
2022-09-12T03:12:11.803Z,18.52
2022-09-12T03:15:02.143Z,18.43
2022-09-12T03:17:45.300Z,18.41
2022-09-12T03:20:23.468Z,18.41
2022-09-12T03:22:57.345Z,18.55
2022-09-12T03:25:32.111Z,18.60
2022-09-12T03:28:08.152Z,18.40
2022-09-12T03:30:42.287Z,18.45
2022-09-12T03:33:13.104Z,18.36
2022-09-12T03:35:44.793Z,18.32
2022-09-12T03:38:14.928Z,18.33
2022-09-12T03:40:44.857Z,18.31
2022-09-12T03:43:14.960Z,18.32
2022-09-12T03:45:44.727Z,18.49
2022-09-12T03:48:14.530Z,18.44
2022-09-12T03:50:45.726Z,18.52
2022-09-12T03:53:17.400Z,18.36
2022-09-12T03:55:48.767Z,18.25
2022-09-12T03:58:18.627Z,18.21
2022-09-12T04:00:48.505Z,18.23
2022-09-12T04:03:19.364Z,18.20
2022-09-12T04:05:50.606Z,18.37
2022-09-12T04:08:20.323Z,18.43
2022-09-12T04:10:50.753Z,18.41
2022-09-12T04:13:20.556Z,18.30
2022-09-12T04:15:57.792Z,18.33
2022-09-12T04:18:27.891Z,18.33
2022-09-12T04:20:59.416Z,18.24
2022-09-12T04:23:29.135Z,18.35
2022-09-12T04:26:00.833Z,18.21
2022-09-12T04:28:30.970Z,18.31
2022-09-12T04:31:03.219Z,18.15
2022-09-12T04:33:33.105Z,18.17
2022-09-12T04:36:10.722Z,18.27
2022-09-12T04:38:40.493Z,18.37
2022-09-12T04:41:14.000Z,18.31
2022-09-12T04:43:46.339Z,18.38
2022-09-12T04:46:19.847Z,18.33
2022-09-12T04:48:54.515Z,18.40
2022-09-12T04:51:29.816Z,18.46
2022-09-12T04:54:01.557Z,18.00
2022-09-12T04:56:31.947Z,18.56
2022-09-12T04:59:02.668Z,18.56
2022-09-12T05:01:32.636Z,18.56
2022-09-12T05:04:03.787Z,18.56
2022-09-12T05:06:37.211Z,18.55
2022-09-12T05:09:08.812Z,18.65
2022-09-12T05:12:03.081Z,18.74
2022-09-12T05:14:32.511Z,18.75
2022-09-12T05:17:02.993Z,18.79
2022-09-12T05:19:33.562Z,18.93
2022-09-12T05:22:06.742Z,19.09
2022-09-12T05:24:37.928Z,19.10
2022-09-12T05:27:07.816Z,19.04
2022-09-12T05:29:37.626Z,19.09
2022-09-12T05:32:07.404Z,19.11
2022-09-12T05:34:37.998Z,19.25
2022-09-12T05:37:09.237Z,19.22
2022-09-12T05:39:38.971Z,19.16
2022-09-12T05:42:09.091Z,19.21
2022-09-12T05:44:38.862Z,19.40
2022-09-12T05:47:08.797Z,19.35
2022-09-12T05:49:38.572Z,19.40
2022-09-12T05:52:10.146Z,19.40
2022-09-12T05:54:41.270Z,19.37
2022-09-12T05:57:11.096Z,19.36
2022-09-12T05:59:40.819Z,19.41
2022-09-12T06:02:12.979Z,19.56
2022-09-12T06:04:43.839Z,19.47
2022-09-12T06:07:15.592Z,19.43
2022-09-12T06:09:45.340Z,19.56
2022-09-12T06:12:15.118Z,19.54
2022-09-12T06:14:44.908Z,19.63
2022-09-12T06:17:14.607Z,19.79
2022-09-12T06:19:44.481Z,19.66
2022-09-12T06:22:15.659Z,19.81
2022-09-12T06:24:45.821Z,20.00
2022-09-12T06:27:16.198Z,19.99
2022-09-12T06:29:46.004Z,19.96
2022-09-12T06:32:16.608Z,19.98
2022-09-12T06:34:48.495Z,19.94
2022-09-12T06:37:20.077Z,19.95
2022-09-12T06:39:49.975Z,20.10
2022-09-12T06:42:20.089Z,20.23
2022-09-12T06:44:50.539Z,20.20
2022-09-12T06:47:21.189Z,20.26
2022-09-12T06:49:51.229Z,20.29
2022-09-12T06:52:22.356Z,20.40
2022-09-12T06:54:52.147Z,20.40
2022-09-12T06:57:22.027Z,20.45
2022-09-12T06:59:52.356Z,20.57
2022-09-12T07:02:22.223Z,20.51
2022-09-12T07:04:52.349Z,20.64
2022-09-12T07:07:24.204Z,20.67
2022-09-12T07:09:54.112Z,20.82
2022-09-12T07:12:24.071Z,20.80
2022-09-12T07:14:54.164Z,20.80
2022-09-12T07:17:24.315Z,20.94
2022-09-12T07:19:54.044Z,20.74
2022-09-12T07:22:25.311Z,20.89
2022-09-12T07:24:55.841Z,21.00
2022-09-12T07:27:25.682Z,21.07
2022-09-12T07:29:55.998Z,20.90
2022-09-12T07:32:26.118Z,20.99
2022-09-12T07:34:56.011Z,21.10
2022-09-12T07:37:29.516Z,21.34
2022-09-12T07:39:59.746Z,21.15
2022-09-12T07:42:29.706Z,21.27
2022-09-12T07:45:00.537Z,21.41
2022-09-12T07:47:30.286Z,21.40
2022-09-12T07:50:00.266Z,21.48
2022-09-12T07:52:31.695Z,21.47
2022-09-12T07:55:01.587Z,21.55
2022-09-12T07:57:31.615Z,21.73
2022-09-12T08:00:01.610Z,21.88
2022-09-12T08:02:31.664Z,21.90
2022-09-12T08:05:02.558Z,21.87
2022-09-12T08:07:34.229Z,21.91
2022-09-12T08:10:04.282Z,22.05
2022-09-12T08:12:34.664Z,22.12
2022-09-12T08:15:06.520Z,22.15
2022-09-12T08:17:36.518Z,22.12
2022-09-12T08:20:07.332Z,22.25
2022-09-12T08:22:39.934Z,22.21
2022-09-12T08:25:10.522Z,22.31
2022-09-12T08:27:40.830Z,22.32
2022-09-12T08:30:11.986Z,22.42
2022-09-12T08:32:41.750Z,22.37
2022-09-12T08:35:11.979Z,22.40
2022-09-12T08:38:01.275Z,22.41
2022-09-12T08:40:31.641Z,22.47
2022-09-12T08:43:09.436Z,22.47
2022-09-12T08:45:48.248Z,22.55
2022-09-12T08:48:18.131Z,22.56
2022-09-12T08:50:49.914Z,22.43
2022-09-12T08:53:24.889Z,22.47
2022-09-12T08:55:59.627Z,22.52
2022-09-12T08:58:30.769Z,22.55
2022-09-12T09:01:08.545Z,22.75
2022-09-12T09:04:08.167Z,22.73
2022-09-12T09:06:58.538Z,22.85
2022-09-12T09:09:41.426Z,22.82
2022-09-12T09:12:23.540Z,22.66
2022-09-12T09:15:22.153Z,22.84
2022-09-12T09:17:56.428Z,22.74
2022-09-12T09:20:31.760Z,22.73
2022-09-12T09:23:08.701Z,22.80
2022-09-12T09:25:50.732Z,22.87
2022-09-12T09:28:24.941Z,22.88
2022-09-12T09:30:54.885Z,22.91
2022-09-12T09:33:27.479Z,23.01
2022-09-12T09:36:04.406Z,23.18
2022-09-12T09:38:45.899Z,22.94
2022-09-12T09:41:35.543Z,22.94
2022-09-12T09:44:05.787Z,23.01
2022-09-12T09:46:35.771Z,22.97
2022-09-12T09:49:09.212Z,23.05
2022-09-12T09:51:41.830Z,22.99
2022-09-12T09:54:21.264Z,23.12
2022-09-12T09:56:52.572Z,23.14
2022-09-12T09:59:28.420Z,23.18
2022-09-12T10:02:03.652Z,23.26
2022-09-12T10:04:41.084Z,23.34
2022-09-12T10:07:21.170Z,23.34
2022-09-12T10:10:07.052Z,23.53
2022-09-12T10:12:38.488Z,23.69
2022-09-12T10:15:19.347Z,23.66
2022-09-12T10:17:51.050Z,23.47
2022-09-12T10:20:37.313Z,23.60
2022-09-12T10:23:28.489Z,23.67
2022-09-12T10:26:01.813Z,23.64
2022-09-12T10:28:37.426Z,23.61
2022-09-12T10:31:09.688Z,23.66
2022-09-12T10:33:45.277Z,23.84
2022-09-12T10:36:16.783Z,23.92
2022-09-12T10:38:52.300Z,23.86
2022-09-12T10:41:23.023Z,23.94
2022-09-12T10:43:54.199Z,24.12
2022-09-12T10:46:30.571Z,23.97
2022-09-12T10:49:21.177Z,23.93
2022-09-12T10:51:51.919Z,24.04
2022-09-12T10:54:24.796Z,24.12
2022-09-12T10:57:08.628Z,24.28
2022-09-12T10:59:52.815Z,24.21
2022-09-12T11:02:29.667Z,24.36
2022-09-12T11:05:08.027Z,24.46
2022-09-12T11:07:43.888Z,24.13
2022-09-12T11:10:38.786Z,24.28
2022-09-12T11:13:23.944Z,24.32
2022-09-12T11:16:08.136Z,24.37
2022-09-12T11:18:56.792Z,24.01
2022-09-12T11:21:45.808Z,24.33
2022-09-12T11:24:30.634Z,24.36
2022-09-12T11:27:15.950Z,24.42
2022-09-12T11:29:51.025Z,24.52
2022-09-12T11:32:47.606Z,24.62
2022-09-12T11:35:25.837Z,24.37
2022-09-12T11:38:25.087Z,24.31
2022-09-12T11:40:57.543Z,24.39
2022-09-12T11:43:37.994Z,24.10
2022-09-12T11:46:19.623Z,24.62
2022-09-12T11:48:59.050Z,24.65
2022-09-12T11:51:35.107Z,24.38
2022-09-12T11:54:15.046Z,24.32
2022-09-12T11:56:48.290Z,24.30
2022-09-12T11:59:38.155Z,24.40
2022-09-12T12:02:15.644Z,24.35
2022-09-12T12:05:02.992Z,24.37
2022-09-12T12:07:45.668Z,24.45
2022-09-12T12:10:28.566Z,24.47
2022-09-12T12:13:02.037Z,24.52
2022-09-12T12:15:32.595Z,24.66
2022-09-12T12:18:08.921Z,24.70
2022-09-12T12:20:40.269Z,24.52
2022-09-12T12:23:24.291Z,24.66
2022-09-12T12:25:56.585Z,24.61
2022-09-12T12:28:57.389Z,24.68
2022-09-12T12:31:27.828Z,24.57
2022-09-12T12:34:06.635Z,24.61
2022-09-12T12:36:40.435Z,24.56
2022-09-12T12:39:49.980Z,24.76
2022-09-12T12:42:58.757Z,24.73
2022-09-12T12:46:13.136Z,24.85
2022-09-12T12:48:56.789Z,24.46
2022-09-12T12:51:36.295Z,24.43
2022-09-12T12:54:30.808Z,24.41
2022-09-12T12:57:18.746Z,24.49
2022-09-12T12:59:54.235Z,24.67
2022-09-12T13:02:30.274Z,24.67
2022-09-12T13:05:02.452Z,24.61
2022-09-12T13:07:36.307Z,24.68
2022-09-12T13:10:09.483Z,24.70
2022-09-12T13:12:47.082Z,24.57
2022-09-12T13:15:49.849Z,24.64
2022-09-12T13:18:26.171Z,24.57
2022-09-12T13:21:04.999Z,24.64
2022-09-12T13:23:35.443Z,24.61
2022-09-12T13:26:12.900Z,24.63
2022-09-12T13:28:42.934Z,24.67
2022-09-12T13:31:24.865Z,24.63
2022-09-12T13:33:57.917Z,24.65
2022-09-12T13:37:27.691Z,24.64
2022-09-12T13:40:07.505Z,24.53
2022-09-12T13:42:43.509Z,24.42
2022-09-12T13:45:18.456Z,24.36
2022-09-12T13:47:55.316Z,24.20
2022-09-12T13:50:32.226Z,24.34
2022-09-12T13:53:06.933Z,24.40
2022-09-12T13:55:41.639Z,24.45
2022-09-12T13:58:21.620Z,24.56
2022-09-12T14:01:14.390Z,24.63
2022-09-12T14:04:08.726Z,24.57
2022-09-12T14:06:49.681Z,24.58
2022-09-12T14:09:25.475Z,24.62
2022-09-12T14:11:55.874Z,24.59
2022-09-12T14:14:32.947Z,24.51
2022-09-12T14:17:03.245Z,24.40
2022-09-12T14:19:34.564Z,24.38
2022-09-12T14:22:04.988Z,24.36
2022-09-12T14:24:34.945Z,24.30
2022-09-12T14:27:06.403Z,24.25
2022-09-12T14:29:37.965Z,24.26
2022-09-12T14:32:22.680Z,24.19
2022-09-12T14:35:06.482Z,24.23
2022-09-12T14:37:36.679Z,24.24
2022-09-12T14:40:19.373Z,24.15
2022-09-12T14:42:51.463Z,24.15
2022-09-12T14:45:32.031Z,24.05
2022-09-12T14:48:02.154Z,23.97
2022-09-12T14:50:37.240Z,23.97
2022-09-12T14:53:08.797Z,23.90
2022-09-12T14:55:45.399Z,23.89
2022-09-12T14:58:23.572Z,23.80
2022-09-12T15:01:00.319Z,23.82
2022-09-12T15:03:33.225Z,23.78
2022-09-12T15:06:04.926Z,23.81
2022-09-12T15:08:34.823Z,23.86
2022-09-12T15:11:07.804Z,23.86
2022-09-12T15:13:41.821Z,23.81
2022-09-12T15:16:13.964Z,23.87
2022-09-12T15:18:44.186Z,23.87
2022-09-12T15:21:17.686Z,23.90
2022-09-12T15:23:49.483Z,23.78
2022-09-12T15:26:21.829Z,23.79
2022-09-12T15:28:52.262Z,23.82
2022-09-12T15:31:27.217Z,23.79
2022-09-12T15:33:59.172Z,23.78
2022-09-12T15:36:30.073Z,23.76
2022-09-12T15:39:00.031Z,23.73
2022-09-12T15:41:34.143Z,23.65
2022-09-12T15:44:05.211Z,23.64
2022-09-12T15:46:36.501Z,23.61
2022-09-12T15:49:07.064Z,23.63
2022-09-12T15:51:37.163Z,23.59
2022-09-12T15:54:06.997Z,23.57
2022-09-12T15:56:37.032Z,23.55
2022-09-12T15:59:07.119Z,23.59
2022-09-12T16:01:38.540Z,23.55
2022-09-12T16:04:21.867Z,23.50
2022-09-12T16:06:52.051Z,23.45
2022-09-12T16:09:22.849Z,23.44
2022-09-12T16:11:52.839Z,23.37
2022-09-12T16:14:22.844Z,23.41
2022-09-12T16:16:57.482Z,23.37
2022-09-12T16:19:27.369Z,23.35
2022-09-12T16:21:57.357Z,23.33
2022-09-12T16:24:27.367Z,23.33
2022-09-12T16:27:00.981Z,23.24
2022-09-12T16:29:31.391Z,23.21
2022-09-12T16:32:03.354Z,23.18
2022-09-12T16:34:33.236Z,23.15
2022-09-12T16:37:03.242Z,23.13
2022-09-12T16:39:34.481Z,23.08
2022-09-12T16:42:05.031Z,23.08
2022-09-12T16:44:34.980Z,23.02
2022-09-12T16:47:06.676Z,22.94
2022-09-12T16:49:36.455Z,22.93
2022-09-12T16:52:06.894Z,22.91
2022-09-12T16:54:37.090Z,22.85
2022-09-12T16:57:07.322Z,22.85
2022-09-12T16:59:37.547Z,22.79
2022-09-12T17:02:09.250Z,22.77
2022-09-12T17:04:39.315Z,22.74
2022-09-12T17:07:10.176Z,22.66
2022-09-12T17:09:40.332Z,22.67
2022-09-12T17:12:10.484Z,22.58
2022-09-12T17:14:40.350Z,22.58
2022-09-12T17:17:11.882Z,22.56
2022-09-12T17:19:43.416Z,22.55
2022-09-12T17:22:13.421Z,22.53
2022-09-12T17:24:43.433Z,22.51
2022-09-12T17:27:13.571Z,22.45
2022-09-12T17:29:43.569Z,22.41
2022-09-12T17:32:17.555Z,22.40
2022-09-12T17:34:47.559Z,22.42
2022-09-12T17:37:17.776Z,22.41
2022-09-12T17:39:47.764Z,22.43
2022-09-12T17:42:17.964Z,22.39
2022-09-12T17:44:48.179Z,22.36
2022-09-12T17:47:19.633Z,22.32
2022-09-12T17:49:50.703Z,22.22
2022-09-12T17:52:21.463Z,22.28
2022-09-12T17:54:51.651Z,22.26
2022-09-12T17:57:21.497Z,22.21
2022-09-12T17:59:51.622Z,22.14
2022-09-12T18:02:21.941Z,22.12
2022-09-12T18:04:51.891Z,22.11
2022-09-12T18:07:22.229Z,22.08
2022-09-12T18:09:52.666Z,22.05
2022-09-12T18:12:22.554Z,22.01
2022-09-12T18:14:52.533Z,21.99
2022-09-12T18:17:23.707Z,21.88
2022-09-12T18:19:54.876Z,21.81
2022-09-12T18:22:24.942Z,21.81
2022-09-12T18:24:54.822Z,21.72
2022-09-12T18:27:24.897Z,21.65
2022-09-12T18:30:17.125Z,21.65
2022-09-12T18:32:46.757Z,21.50
2022-09-12T18:35:18.048Z,21.49
2022-09-12T18:37:47.978Z,21.43
2022-09-12T18:40:18.530Z,21.42
2022-09-12T18:42:48.409Z,21.32
2022-09-12T18:45:18.476Z,21.26
2022-09-12T18:47:49.934Z,21.25
2022-09-12T18:50:19.732Z,21.22
2022-09-12T18:52:49.518Z,21.23
2022-09-12T18:55:20.109Z,21.12
2022-09-12T18:57:50.562Z,21.07
2022-09-12T19:00:21.455Z,21.10
2022-09-12T19:02:52.671Z,20.95
2022-09-12T19:05:22.471Z,20.93
2022-09-12T19:07:52.663Z,20.81
2022-09-12T19:10:22.731Z,20.82
2022-09-12T19:12:52.877Z,20.80
2022-09-12T19:15:23.125Z,20.76
2022-09-12T19:17:54.540Z,20.75
2022-09-12T19:20:24.418Z,20.67
2022-09-12T19:22:54.198Z,20.64
2022-09-12T19:25:24.597Z,20.69
2022-09-12T19:27:54.435Z,20.60
2022-09-12T19:30:24.356Z,20.66
2022-09-12T19:32:55.568Z,20.67
2022-09-12T19:35:25.481Z,20.62
2022-09-12T19:37:55.736Z,20.52
2022-09-12T19:40:25.779Z,20.54
2022-09-12T19:42:55.568Z,20.50
2022-09-12T19:45:25.737Z,20.42
2022-09-12T19:47:56.921Z,20.40
2022-09-12T19:50:27.309Z,20.41
2022-09-12T19:52:57.070Z,20.38
2022-09-12T19:55:27.261Z,20.40
2022-09-12T19:57:57.079Z,20.40
2022-09-12T20:00:27.037Z,20.37
2022-09-12T20:02:58.228Z,20.31
2022-09-12T20:05:28.224Z,20.32
2022-09-12T20:07:58.866Z,20.29
2022-09-12T20:10:29.128Z,20.22
2022-09-12T20:12:58.961Z,20.23
2022-09-12T20:15:29.125Z,20.18
2022-09-12T20:18:00.358Z,20.16
2022-09-12T20:20:30.341Z,20.21
2022-09-12T20:23:01.069Z,20.13
2022-09-12T20:25:30.981Z,20.16
2022-09-12T20:28:00.934Z,20.13
2022-09-12T20:30:31.020Z,20.08
2022-09-12T20:33:02.478Z,20.04
2022-09-12T20:35:32.470Z,20.03
2022-09-12T20:38:02.459Z,19.99
2022-09-12T20:40:32.318Z,20.09
2022-09-12T20:43:02.085Z,20.01
2022-09-12T20:45:31.846Z,19.97
2022-09-12T20:48:03.330Z,19.88
2022-09-12T20:50:33.264Z,19.91
2022-09-12T20:53:03.072Z,19.83
2022-09-12T20:55:32.965Z,19.87
2022-09-12T20:58:03.359Z,19.78
2022-09-12T21:00:33.281Z,19.90
2022-09-12T21:03:05.228Z,19.92
2022-09-12T21:05:35.164Z,19.76
2022-09-12T21:08:05.046Z,19.76
2022-09-12T21:10:35.987Z,19.77
2022-09-12T21:13:05.742Z,19.77
2022-09-12T21:15:35.502Z,19.73
2022-09-12T21:18:06.831Z,19.67
2022-09-12T21:20:36.711Z,19.66
2022-09-12T21:23:06.476Z,19.67
2022-09-12T21:25:36.274Z,19.67
2022-09-12T21:28:06.232Z,19.57
2022-09-12T21:30:36.037Z,19.58
2022-09-12T21:33:08.665Z,19.49
2022-09-12T21:35:39.048Z,19.52
2022-09-12T21:38:09.404Z,19.62
2022-09-12T21:40:39.658Z,19.60
2022-09-12T21:43:12.765Z,19.54
2022-09-12T21:45:42.868Z,19.55
2022-09-12T21:48:13.975Z,19.43
2022-09-12T21:50:44.364Z,19.55
2022-09-12T21:53:14.136Z,19.54
2022-09-12T21:55:44.059Z,19.41
2022-09-12T21:58:13.803Z,19.41
2022-09-12T22:00:44.393Z,19.40
2022-09-12T22:03:15.941Z,19.37
2022-09-12T22:05:45.832Z,19.29
2022-09-12T22:08:15.483Z,19.25
2022-09-12T22:10:45.237Z,19.24
2022-09-12T22:13:15.004Z,19.15
2022-09-12T22:15:45.686Z,18.99
2022-09-12T22:18:16.810Z,19.23
2022-09-12T22:20:47.310Z,19.17
2022-09-12T22:23:34.775Z,19.15
2022-09-12T22:26:04.812Z,19.11
2022-09-12T22:28:35.859Z,19.09
2022-09-12T22:31:06.681Z,19.07
2022-09-12T22:33:38.184Z,19.05
2022-09-12T22:36:09.779Z,19.01
2022-09-12T22:38:40.536Z,18.98
2022-09-12T22:41:13.187Z,19.01
2022-09-12T22:43:43.183Z,18.97
2022-09-12T22:46:13.409Z,18.95
2022-09-12T22:48:44.701Z,19.00
2022-09-12T22:51:14.776Z,18.83
2022-09-12T22:53:44.960Z,18.89
2022-09-12T22:56:14.859Z,18.85
2022-09-12T22:58:44.580Z,18.90
2022-09-12T23:01:14.513Z,18.94
2022-09-12T23:03:46.090Z,18.78
2022-09-12T23:06:16.033Z,18.82
2022-09-12T23:08:46.229Z,18.71
2022-09-12T23:11:17.768Z,18.75
2022-09-12T23:13:49.432Z,18.75
2022-09-12T23:16:21.496Z,18.73
2022-09-12T23:18:53.633Z,18.65
2022-09-12T23:21:23.561Z,18.70
2022-09-12T23:23:53.741Z,18.68
2022-09-12T23:26:25.655Z,18.71
2022-09-12T23:28:57.498Z,18.60
2022-09-12T23:31:30.041Z,18.67
2022-09-12T23:34:05.942Z,18.64
2022-09-12T23:36:35.865Z,18.60
2022-09-12T23:39:06.218Z,18.55
2022-09-12T23:41:36.143Z,18.50
2022-09-12T23:44:06.044Z,18.51
2022-09-12T23:46:35.820Z,18.51
2022-09-12T23:49:07.413Z,18.51
2022-09-12T23:51:37.344Z,18.58
2022-09-12T23:54:08.705Z,18.55
2022-09-12T23:56:38.554Z,18.55
2022-09-12T23:59:09.302Z,18.50
